createdAt,value
2023-03-12T02:04:19.212Z,72.97
2023-03-12T02:05:19.685Z,73.46
2023-03-12T02:06:19.833Z,73.46
2023-03-12T02:07:19.887Z,74.80
2023-03-12T02:08:19.717Z,75.67
2023-03-12T02:09:19.800Z,74.74
2023-03-12T02:10:19.834Z,74.95
2023-03-12T02:11:19.874Z,76.92
2023-03-12T02:12:19.652Z,76.72
2023-03-12T02:13:20.011Z,77.23
2023-03-12T02:14:19.603Z,77.23
2023-03-12T02:15:19.621Z,77.79
2023-03-12T02:16:19.743Z,79.87
2023-03-12T02:17:19.751Z,76.75
2023-03-12T02:18:19.584Z,76.12
2023-03-12T02:19:19.671Z,77.58
2023-03-12T02:20:19.652Z,78.31
2023-03-12T02:21:19.587Z,76.86
2023-03-12T02:22:19.701Z,76.54
2023-03-12T02:23:19.602Z,75.19
2023-03-12T02:24:19.547Z,75.50
2023-03-12T02:25:19.663Z,76.54
2023-03-12T02:26:19.726Z,76.09
2023-03-12T02:27:19.683Z,74.32
2023-03-12T02:28:19.654Z,75.26
2023-03-12T02:29:19.828Z,74.84
2023-03-12T02:30:19.465Z,75.57
2023-03-12T02:31:19.541Z,76.30
2023-03-12T02:32:19.549Z,74.74
2023-03-12T02:33:19.603Z,74.63
2023-03-12T02:34:19.586Z,74.53
2023-03-12T02:35:19.501Z,74.74
2023-03-12T02:36:19.511Z,75.15
2023-03-12T02:37:19.414Z,73.80
2023-03-12T02:38:19.387Z,73.07
2023-03-12T02:39:19.474Z,74.32
2023-03-12T02:40:19.549Z,74.63
2023-03-12T02:41:19.456Z,75.67
2023-03-12T02:42:19.450Z,75.05
2023-03-12T02:43:19.502Z,75.26
2023-03-12T02:44:19.336Z,75.88
2023-03-12T02:45:19.448Z,76.40
2023-03-12T02:46:19.387Z,75.36
2023-03-12T02:47:19.286Z,74.01
2023-03-12T02:48:19.390Z,75.26
2023-03-12T02:49:19.436Z,77.75
2023-03-12T02:50:19.275Z,78.17
2023-03-12T02:51:19.289Z,77.65
2023-03-12T02:52:19.472Z,76.82
2023-03-12T02:53:19.225Z,76.92
2023-03-12T02:54:19.302Z,75.15
2023-03-12T02:55:20.520Z,74.74
2023-03-12T02:56:19.220Z,75.78
2023-03-12T02:57:19.207Z,74.21
2023-03-12T02:58:19.286Z,72.31
2023-03-12T02:59:19.214Z,72.72
2023-03-12T03:00:19.379Z,74.18
2023-03-12T03:01:19.395Z,74.70
2023-03-12T03:02:19.138Z,74.39
2023-03-12T03:03:19.154Z,75.32
2023-03-12T03:04:19.798Z,74.39
2023-03-12T03:05:19.228Z,74.39
2023-03-12T03:06:19.155Z,74.80
2023-03-12T03:07:19.162Z,74.91
2023-03-12T03:08:19.117Z,74.53
2023-03-12T03:09:19.080Z,74.43
2023-03-12T03:10:19.103Z,74.11
2023-03-12T03:11:19.225Z,74.21
2023-03-12T03:12:19.264Z,75.26
2023-03-12T03:13:19.112Z,75.46
2023-03-12T03:14:19.062Z,75.67
2023-03-12T03:15:19.030Z,76.09
2023-03-12T03:16:19.164Z,76.61
2023-03-12T03:17:19.061Z,75.46
2023-03-12T03:18:19.142Z,75.05
2023-03-12T03:19:19.124Z,74.53
2023-03-12T03:20:19.305Z,74.43
2023-03-12T03:21:19.085Z,74.74
2023-03-12T03:22:18.956Z,74.43
2023-03-12T03:23:18.941Z,75.36
2023-03-12T03:24:18.962Z,75.46
2023-03-12T03:25:18.976Z,75.26
2023-03-12T03:26:19.071Z,74.32
2023-03-12T03:27:18.949Z,77.55
2023-03-12T03:28:19.012Z,76.72
2023-03-12T03:29:18.927Z,75.78
2023-03-12T03:30:19.034Z,76.40
2023-03-12T03:31:18.984Z,74.74
2023-03-12T03:32:18.904Z,73.80
2023-03-12T03:33:18.954Z,74.39
2023-03-12T03:34:19.053Z,73.46
2023-03-12T03:35:19.047Z,74.29
2023-03-12T03:36:19.003Z,73.97
2023-03-12T03:37:18.975Z,76.16
2023-03-12T03:38:18.887Z,76.57
2023-03-12T03:39:18.794Z,74.29
2023-03-12T03:40:18.996Z,76.06
2023-03-12T03:41:18.850Z,75.54
2023-03-12T03:42:18.943Z,75.43
2023-03-12T03:43:19.049Z,76.06
2023-03-12T03:44:18.889Z,77.51
2023-03-12T03:45:18.989Z,75.64
2023-03-12T03:46:18.951Z,75.74
2023-03-12T03:47:18.955Z,74.84
2023-03-12T03:48:18.727Z,73.80
2023-03-12T03:49:18.738Z,73.56
2023-03-12T03:50:18.753Z,73.97
2023-03-12T03:51:18.845Z,74.70
2023-03-12T03:52:18.786Z,76.26
2023-03-12T03:53:18.688Z,74.39
2023-03-12T03:54:18.657Z,73.21
2023-03-12T03:55:18.813Z,74.77
2023-03-12T03:56:18.731Z,73.94
2023-03-12T03:57:18.626Z,74.98
2023-03-12T03:58:18.621Z,74.46
2023-03-12T03:59:18.844Z,75.09
2023-03-12T04:00:18.659Z,74.67
2023-03-12T04:01:18.974Z,73.73
2023-03-12T04:02:18.674Z,74.15
2023-03-12T04:03:18.702Z,74.35
2023-03-12T04:04:18.684Z,73.94
2023-03-12T04:05:18.677Z,74.35
2023-03-12T04:06:18.568Z,71.97
2023-03-12T04:07:18.659Z,72.38
2023-03-12T04:08:18.511Z,73.94
2023-03-12T04:09:18.594Z,72.28
2023-03-12T04:10:18.550Z,73.00
2023-03-12T04:11:18.502Z,74.67
2023-03-12T04:12:18.516Z,74.57
2023-03-12T04:13:18.487Z,71.65
2023-03-12T04:14:18.501Z,72.76
2023-03-12T04:15:18.463Z,73.28
2023-03-12T04:16:18.787Z,72.24
2023-03-12T04:17:18.459Z,72.97
2023-03-12T04:18:18.577Z,72.66
2023-03-12T04:19:18.467Z,74.01
2023-03-12T04:20:18.410Z,72.55
2023-03-12T04:21:18.543Z,72.14
2023-03-12T04:22:18.420Z,71.93
2023-03-12T04:23:18.448Z,72.14
2023-03-12T04:24:18.396Z,71.51
2023-03-12T04:25:18.574Z,71.72
2023-03-12T04:26:18.403Z,72.45
2023-03-12T04:27:18.519Z,70.48
2023-03-12T04:28:18.375Z,72.11
2023-03-12T04:29:18.485Z,73.25
2023-03-12T04:30:18.323Z,75.32
2023-03-12T04:31:18.565Z,71.72
2023-03-12T04:32:18.463Z,71.72
2023-03-12T04:33:18.726Z,72.63
2023-03-12T04:34:18.413Z,72.00
2023-03-12T04:35:18.265Z,71.80
2023-03-12T04:36:18.274Z,72.52
2023-03-12T04:37:18.464Z,71.28
2023-03-12T04:38:18.411Z,70.97
2023-03-12T04:39:18.247Z,71.28
2023-03-12T04:40:18.240Z,72.21
2023-03-12T04:41:18.241Z,73.56
2023-03-12T04:42:18.237Z,73.60
2023-03-12T04:43:18.786Z,72.55
2023-03-12T04:44:18.346Z,72.03
2023-03-12T04:45:18.389Z,71.59
2023-03-12T04:46:18.442Z,71.59
2023-03-12T04:47:18.624Z,72.14
2023-03-12T04:48:18.337Z,74.08
2023-03-12T04:49:18.369Z,74.08
2023-03-12T04:50:18.266Z,73.07
2023-03-12T04:51:18.182Z,73.91
2023-03-12T04:52:18.161Z,73.14
2023-03-12T04:53:18.329Z,72.83
2023-03-12T04:54:18.304Z,73.70
2023-03-12T04:55:18.301Z,73.70
2023-03-12T04:56:18.075Z,72.24
2023-03-12T04:57:18.078Z,71.93
2023-03-12T04:58:18.060Z,73.60
2023-03-12T04:59:18.049Z,73.91
2023-03-12T05:00:18.076Z,73.60
2023-03-12T05:01:18.062Z,72.55
2023-03-12T05:02:18.269Z,72.45
2023-03-12T05:03:18.191Z,73.49
2023-03-12T05:04:18.013Z,73.91
2023-03-12T05:05:18.005Z,72.52
2023-03-12T05:06:18.077Z,72.73
2023-03-12T05:07:18.067Z,72.11
2023-03-12T05:08:17.978Z,73.25
2023-03-12T05:09:18.204Z,72.73
2023-03-12T05:10:18.051Z,73.56
2023-03-12T05:11:18.121Z,73.77
2023-03-12T05:12:17.935Z,73.87
2023-03-12T05:13:17.925Z,73.97
2023-03-12T05:14:18.066Z,71.90
2023-03-12T05:15:17.892Z,72.42
2023-03-12T05:16:17.996Z,72.42
2023-03-12T05:17:17.882Z,72.52
2023-03-12T05:18:17.923Z,72.31
2023-03-12T05:19:18.480Z,73.25
2023-03-12T05:20:17.937Z,73.56
2023-03-12T05:21:17.921Z,73.46
2023-03-12T05:22:18.035Z,73.56
2023-03-12T05:23:17.794Z,73.56
2023-03-12T05:24:17.820Z,73.25
2023-03-12T05:25:17.970Z,73.04
2023-03-12T05:26:17.822Z,74.49
2023-03-12T05:27:17.797Z,75.01
2023-03-12T05:28:17.815Z,72.11
2023-03-12T05:29:17.866Z,73.56
2023-03-12T05:30:17.771Z,71.28
2023-03-12T05:31:18.025Z,72.11
2023-03-12T05:32:17.961Z,72.52
2023-03-12T05:33:17.933Z,72.21
2023-03-12T05:34:17.760Z,73.87
2023-03-12T05:35:17.739Z,72.52
2023-03-12T05:36:17.849Z,72.21
2023-03-12T05:37:17.744Z,72.21
2023-03-12T05:38:17.690Z,72.31
2023-03-12T05:39:18.001Z,73.25
2023-03-12T05:40:17.667Z,76.26
2023-03-12T05:41:17.637Z,74.91
2023-03-12T05:42:17.784Z,75.22
2023-03-12T05:43:17.664Z,75.22
2023-03-12T05:44:17.706Z,75.22
2023-03-12T05:45:18.087Z,76.37
2023-03-12T05:46:17.720Z,75.95
2023-03-12T05:47:17.599Z,75.74
2023-03-12T05:48:17.609Z,74.39
2023-03-12T05:49:17.634Z,75.12
2023-03-12T05:50:17.628Z,73.25
2023-03-12T05:51:17.565Z,75.12
2023-03-12T05:52:17.644Z,74.70
2023-03-12T05:53:17.594Z,75.54
2023-03-12T05:54:17.767Z,76.26
2023-03-12T05:55:17.772Z,75.95
2023-03-12T05:56:17.593Z,76.68
2023-03-12T05:57:17.594Z,76.99
2023-03-12T05:58:17.512Z,76.68
2023-03-12T05:59:17.500Z,77.61
2023-03-12T06:00:17.476Z,76.68
2023-03-12T06:01:17.487Z,76.57
2023-03-12T06:02:17.549Z,78.13
2023-03-12T06:03:17.482Z,77.72
2023-03-12T06:04:17.451Z,78.34
2023-03-12T06:05:17.440Z,78.03
2023-03-12T06:06:17.503Z,77.92
2023-03-12T06:07:17.555Z,77.82
2023-03-12T06:08:17.469Z,78.13
2023-03-12T06:09:17.384Z,78.69
2023-03-12T06:10:17.369Z,78.79
2023-03-12T06:11:18.301Z,79.41
2023-03-12T06:12:17.357Z,80.35
2023-03-12T06:13:17.423Z,82.12
2023-03-12T06:14:17.336Z,80.87
2023-03-12T06:15:17.407Z,80.87
2023-03-12T06:16:17.525Z,80.56
2023-03-12T06:17:17.380Z,80.25
2023-03-12T06:18:17.476Z,80.04
2023-03-12T06:19:17.483Z,80.15
2023-03-12T06:20:17.404Z,80.35
2023-03-12T06:21:17.302Z,80.77
2023-03-12T06:22:17.488Z,80.98
2023-03-12T06:23:19.132Z,81.81
2023-03-12T06:24:17.276Z,81.81
2023-03-12T06:25:17.484Z,80.77
2023-03-12T06:26:17.252Z,80.00
2023-03-12T06:27:17.699Z,81.04
2023-03-12T06:28:17.409Z,80.63
2023-03-12T06:29:17.447Z,80.52
2023-03-12T06:30:17.176Z,81.87
2023-03-12T06:31:17.246Z,82.29
2023-03-12T06:32:17.236Z,80.63
2023-03-12T06:33:17.132Z,81.46
2023-03-12T06:34:17.162Z,81.87
2023-03-12T06:35:17.164Z,80.73
2023-03-12T06:36:17.373Z,81.56
2023-03-12T06:37:17.185Z,81.56
2023-03-12T06:38:17.136Z,80.94
2023-03-12T06:39:17.088Z,80.21
2023-03-12T06:40:17.128Z,81.15
2023-03-12T06:41:17.306Z,81.56
2023-03-12T06:42:17.082Z,82.08
2023-03-12T06:43:17.099Z,81.67
2023-03-12T06:44:17.101Z,82.08
2023-03-12T06:45:17.194Z,82.08
2023-03-12T06:46:17.203Z,82.08
2023-03-12T06:47:17.809Z,83.22
2023-03-12T06:48:17.017Z,83.33
2023-03-12T06:49:17.036Z,83.01
2023-03-12T06:50:17.367Z,83.43
2023-03-12T06:51:17.010Z,83.22
2023-03-12T06:52:17.057Z,84.27
2023-03-12T06:53:17.169Z,84.47
2023-03-12T06:54:17.067Z,83.74
2023-03-12T06:55:17.354Z,83.53
2023-03-12T06:56:17.140Z,84.05
2023-03-12T06:57:17.178Z,84.27
2023-03-12T06:58:16.910Z,84.58
2023-03-12T06:59:16.905Z,84.37
2023-03-12T07:00:16.913Z,85.82
2023-03-12T07:01:16.914Z,85.10
2023-03-12T07:02:17.215Z,85.20
2023-03-12T07:03:17.097Z,85.61
2023-03-12T07:04:16.851Z,85.51
2023-03-12T07:05:16.915Z,85.72
2023-03-12T07:06:16.927Z,87.79
2023-03-12T07:07:16.909Z,86.65
2023-03-12T07:08:16.811Z,86.55
2023-03-12T07:09:16.841Z,86.55
2023-03-12T07:10:16.822Z,86.55
2023-03-12T07:11:16.790Z,87.48
2023-03-12T07:12:16.791Z,87.79
2023-03-12T07:13:16.797Z,87.79
2023-03-12T07:14:17.192Z,87.69
2023-03-12T07:15:16.845Z,88.10
2023-03-12T07:16:16.835Z,88.00
2023-03-12T07:17:16.874Z,88.10
2023-03-12T07:18:16.736Z,88.62
2023-03-12T07:19:16.898Z,89.15
2023-03-12T07:20:16.930Z,88.84
2023-03-12T07:21:16.832Z,89.04
2023-03-12T07:22:17.156Z,88.94
2023-03-12T07:23:16.700Z,89.46
2023-03-12T07:24:16.902Z,89.36
2023-03-12T07:25:18.645Z,89.15
2023-03-12T07:26:16.964Z,89.15
2023-03-12T07:27:17.140Z,89.77
2023-03-12T07:28:17.000Z,90.08
2023-03-12T07:29:16.678Z,89.87
2023-03-12T07:30:16.625Z,89.73
2023-03-12T07:31:16.707Z,89.73
2023-03-12T07:32:16.918Z,89.73
2023-03-12T07:33:16.834Z,89.73
2023-03-12T07:34:16.792Z,90.25
2023-03-12T07:35:16.582Z,90.14
2023-03-12T07:36:16.660Z,90.04
2023-03-12T07:37:16.882Z,90.14
2023-03-12T07:38:16.641Z,90.45
2023-03-12T07:39:16.694Z,90.25
2023-03-12T07:40:16.583Z,90.25
2023-03-12T07:41:16.551Z,90.45
2023-03-12T07:42:16.492Z,91.08
2023-03-12T07:43:16.508Z,91.39
2023-03-12T07:44:16.495Z,91.80
2023-03-12T07:45:16.677Z,92.43
2023-03-12T07:46:16.540Z,92.11
2023-03-12T07:47:23.530Z,92.43
2023-03-12T07:48:17.134Z,92.59
2023-03-12T07:49:16.472Z,91.49
2023-03-12T07:50:16.760Z,91.60
2023-03-12T07:51:16.590Z,92.11
2023-03-12T07:52:16.746Z,91.70
2023-03-12T07:53:16.656Z,91.80
2023-03-12T07:54:16.474Z,92.01
2023-03-12T07:55:16.764Z,92.11
2023-03-12T07:56:16.535Z,92.74
2023-03-12T07:57:16.665Z,92.22
2023-03-12T07:58:16.512Z,91.49
2023-03-12T07:59:16.720Z,92.07
2023-03-12T08:00:16.359Z,92.28
2023-03-12T08:01:16.361Z,92.59
2023-03-12T08:02:16.480Z,92.38
2023-03-12T08:03:16.549Z,92.35
2023-03-12T08:04:16.681Z,91.10
2023-03-12T08:05:16.305Z,91.41
2023-03-12T08:06:16.504Z,91.00
2023-03-12T08:07:16.348Z,90.89
2023-03-12T08:08:16.288Z,91.68
2023-03-12T08:09:16.376Z,91.47
2023-03-12T08:10:16.278Z,91.16
2023-03-12T08:11:16.196Z,91.99
2023-03-12T08:12:16.456Z,91.47
2023-03-12T08:13:16.318Z,91.47
2023-03-12T08:14:16.276Z,92.10
2023-03-12T08:15:16.153Z,92.72
2023-03-12T08:16:16.182Z,91.58
2023-03-12T08:17:16.264Z,91.52
2023-03-12T08:18:16.165Z,91.72
2023-03-12T08:19:16.173Z,92.76
2023-03-12T08:20:16.151Z,93.02
2023-03-12T08:21:16.592Z,92.10
2023-03-12T08:22:16.297Z,92.10
2023-03-12T08:23:16.198Z,92.10
2023-03-12T08:24:16.095Z,92.16
2023-03-12T08:25:16.104Z,91.74
2023-03-12T08:26:16.309Z,91.43
2023-03-12T08:27:16.065Z,90.50
2023-03-12T08:28:16.193Z,91.02
2023-03-12T08:29:16.098Z,90.29
2023-03-12T08:30:16.241Z,90.60
2023-03-12T08:31:16.102Z,91.02
2023-03-12T08:32:16.122Z,91.49
2023-03-12T08:33:16.206Z,90.56
2023-03-12T08:34:16.158Z,90.14
2023-03-12T08:35:15.995Z,90.35
2023-03-12T08:36:15.942Z,90.25
2023-03-12T08:37:16.041Z,90.14
2023-03-12T08:38:16.262Z,89.31
2023-03-12T08:39:16.091Z,89.52
2023-03-12T08:40:16.121Z,90.72
2023-03-12T08:41:16.208Z,90.89
2023-03-12T08:42:16.055Z,89.54
2023-03-12T08:43:15.886Z,89.75
2023-03-12T08:44:16.089Z,89.65
2023-03-12T08:45:15.914Z,89.13
2023-03-12T08:46:15.937Z,89.65
2023-03-12T08:47:15.968Z,89.86
2023-03-12T08:48:15.877Z,89.86
2023-03-12T08:49:16.624Z,90.74
2023-03-12T08:50:15.801Z,89.92
2023-03-12T08:51:16.935Z,89.09
2023-03-12T08:52:15.787Z,89.40
2023-03-12T08:53:15.892Z,89.92
2023-03-12T08:54:15.835Z,89.61
2023-03-12T08:55:15.795Z,89.87
2023-03-12T08:56:15.844Z,89.15
2023-03-12T08:57:15.758Z,89.67
2023-03-12T08:58:15.788Z,89.87
2023-03-12T08:59:15.839Z,89.77
2023-03-12T09:00:15.776Z,89.56
2023-03-12T09:01:16.083Z,89.87
2023-03-12T09:02:15.894Z,90.50
2023-03-12T09:03:15.767Z,90.60
2023-03-12T09:04:15.765Z,90.70
2023-03-12T09:05:15.666Z,90.08
2023-03-12T09:06:15.828Z,90.19
2023-03-12T09:07:15.870Z,90.70
2023-03-12T09:08:15.656Z,90.95
2023-03-12T09:09:15.785Z,91.26
2023-03-12T09:10:15.799Z,91.88
2023-03-12T09:11:15.836Z,92.71
2023-03-12T09:12:15.646Z,92.96
2023-03-12T09:13:15.819Z,93.37
2023-03-12T09:14:57.585Z,93.68
2023-03-12T09:15:15.651Z,94.20
2023-03-12T09:16:15.722Z,94.62
2023-03-12T09:17:15.583Z,94.82
2023-03-12T09:18:15.723Z,95.44
2023-03-12T09:19:15.604Z,96.17
2023-03-12T09:20:15.525Z,96.58
2023-03-12T09:21:15.524Z,96.69
2023-03-12T09:22:15.526Z,96.69
2023-03-12T09:23:15.498Z,96.48
2023-03-12T09:24:15.489Z,97.26
2023-03-12T09:25:15.547Z,97.36
2023-03-12T09:26:15.477Z,97.88
2023-03-12T09:27:15.476Z,97.88
2023-03-12T09:28:16.697Z,97.78
2023-03-12T09:29:15.458Z,98.09
2023-03-12T09:30:15.667Z,98.61
2023-03-12T09:31:15.588Z,98.71
2023-03-12T09:32:15.430Z,98.82
2023-03-12T09:33:15.427Z,98.40
2023-03-12T09:34:15.507Z,98.19
2023-03-12T09:35:15.445Z,98.34
2023-03-12T09:36:15.449Z,98.71
2023-03-12T09:37:15.426Z,98.65
2023-03-12T09:38:15.329Z,99.07
2023-03-12T09:39:15.413Z,99.54
2023-03-12T09:40:15.351Z,99.38
2023-03-12T09:41:15.406Z,99.58
2023-03-12T09:42:15.381Z,99.79
2023-03-12T09:43:15.328Z,99.99
2023-03-12T09:44:15.322Z,99.99
2023-03-12T09:45:15.299Z,99.99
2023-03-12T09:46:15.444Z,99.99
2023-03-12T09:47:15.550Z,99.99
2023-03-12T09:48:15.519Z,99.99
2023-03-12T09:49:15.286Z,99.99
2023-03-12T09:50:15.501Z,99.99
2023-03-12T09:51:15.532Z,99.99
2023-03-12T09:52:15.267Z,99.99
2023-03-12T09:53:15.413Z,99.99
2023-03-12T09:54:15.238Z,99.99
2023-03-12T09:55:15.410Z,99.99
2023-03-12T09:56:15.173Z,99.99
2023-03-12T09:57:15.595Z,99.99
2023-03-12T09:58:15.323Z,99.99
2023-03-12T09:59:15.217Z,99.99
2023-03-12T10:00:15.377Z,99.99
2023-03-12T10:01:15.176Z,99.99
2023-03-12T10:02:15.189Z,99.99
2023-03-12T10:03:15.150Z,99.99
2023-03-12T10:04:15.312Z,99.99
2023-03-12T10:05:15.303Z,99.99
2023-03-12T10:06:15.360Z,99.99
2023-03-12T10:07:15.280Z,99.99
2023-03-12T10:08:25.131Z,99.99
2023-03-12T10:09:15.031Z,99.99
2023-03-12T10:10:15.778Z,99.99
2023-03-12T10:11:15.232Z,99.99
2023-03-12T10:12:15.193Z,99.99
2023-03-12T10:13:15.065Z,99.99
2023-03-12T10:14:23.498Z,99.99
2023-03-12T10:15:15.004Z,99.99
2023-03-12T10:16:15.071Z,99.99
2023-03-12T10:17:14.978Z,99.99
2023-03-12T10:18:15.123Z,99.99
2023-03-12T10:19:14.955Z,99.99
2023-03-12T10:20:14.960Z,99.99
2023-03-12T10:21:14.929Z,99.99
2023-03-12T10:22:14.952Z,99.99
2023-03-12T10:23:15.137Z,99.99
2023-03-12T10:24:15.077Z,99.99
2023-03-12T10:25:14.970Z,99.99
2023-03-12T10:26:14.915Z,99.99
2023-03-12T10:27:15.082Z,99.99
2023-03-12T10:28:14.987Z,99.99
2023-03-12T10:29:15.101Z,99.99
2023-03-12T10:30:14.917Z,99.99
2023-03-12T10:31:15.167Z,99.99
2023-03-12T10:32:14.883Z,99.99
2023-03-12T10:33:14.840Z,99.99
2023-03-12T10:34:15.001Z,99.99
2023-03-12T10:35:14.957Z,99.99
2023-03-12T10:36:15.138Z,99.99
2023-03-12T10:37:14.884Z,99.99
2023-03-12T10:38:14.895Z,99.99
2023-03-12T10:39:14.843Z,99.99
2023-03-12T10:40:14.792Z,99.99
2023-03-12T10:41:14.762Z,99.99
2023-03-12T10:42:14.874Z,99.99
2023-03-12T10:43:14.962Z,99.99
2023-03-12T10:44:14.719Z,99.99
2023-03-12T10:45:14.700Z,99.99
2023-03-12T10:46:14.904Z,99.99
2023-03-12T10:47:14.726Z,99.99
2023-03-12T10:48:14.978Z,99.99
2023-03-12T10:49:14.685Z,99.99
2023-03-12T10:50:14.809Z,99.99
2023-03-12T10:51:14.781Z,99.99
2023-03-12T10:52:14.775Z,99.99
2023-03-12T10:53:14.613Z,99.99
2023-03-12T10:54:14.612Z,99.99
2023-03-12T10:55:14.767Z,99.99
2023-03-12T10:56:14.607Z,99.99
2023-03-12T10:57:14.612Z,99.99
2023-03-12T10:58:14.651Z,99.99
2023-03-12T10:59:14.671Z,99.99
2023-03-12T11:00:14.611Z,99.99
2023-03-12T11:01:14.828Z,99.99
2023-03-12T11:02:14.587Z,99.99
2023-03-12T11:03:14.565Z,99.99
2023-03-12T11:04:14.603Z,99.99
2023-03-12T11:05:14.487Z,99.99
2023-03-12T11:06:14.528Z,99.99
2023-03-12T11:07:14.795Z,99.99
2023-03-12T11:08:14.711Z,99.99
2023-03-12T11:09:17.148Z,99.99
2023-03-12T11:10:14.613Z,99.99
2023-03-12T11:11:14.844Z,99.99
2023-03-12T11:12:14.474Z,99.99
2023-03-12T11:13:14.525Z,99.99
2023-03-12T11:14:14.471Z,99.99
2023-03-12T11:15:14.389Z,99.99
2023-03-12T11:16:14.402Z,99.99
2023-03-12T11:17:14.391Z,99.99
2023-03-12T11:18:14.379Z,99.99
2023-03-12T11:19:14.394Z,99.99
2023-03-12T11:20:14.379Z,99.99
2023-03-12T11:21:14.386Z,99.99
2023-03-12T11:22:14.358Z,99.99
2023-03-12T11:23:14.321Z,99.99
2023-03-12T11:24:14.344Z,99.99
2023-03-12T11:25:14.337Z,99.99
2023-03-12T11:26:14.339Z,99.99
2023-03-12T11:27:14.322Z,99.99
2023-03-12T11:28:14.343Z,99.99
2023-03-12T11:29:14.350Z,99.99
2023-03-12T11:30:14.325Z,99.99
2023-03-12T11:31:14.395Z,99.99
2023-03-12T11:32:14.282Z,99.99
2023-03-12T11:33:14.255Z,99.99
2023-03-12T11:34:14.220Z,99.99
2023-03-12T11:35:14.210Z,99.99
2023-03-12T11:36:14.239Z,99.99
2023-03-12T11:37:14.270Z,99.99
2023-03-12T11:38:14.201Z,99.99
2023-03-12T11:39:14.222Z,99.99
2023-03-12T11:40:14.164Z,99.99
2023-03-12T11:41:14.156Z,99.99
2023-03-12T11:42:14.175Z,99.99
2023-03-12T11:43:14.176Z,99.99
2023-03-12T11:44:14.137Z,99.99
2023-03-12T11:45:14.155Z,99.99
2023-03-12T11:46:14.128Z,99.99
2023-03-12T11:47:14.154Z,99.99
2023-03-12T11:48:14.108Z,99.99
2023-03-12T11:49:14.090Z,99.99
2023-03-12T11:50:14.067Z,99.99
2023-03-12T11:51:14.087Z,99.99
2023-03-12T11:52:14.086Z,99.99
2023-03-12T11:53:14.052Z,99.99
2023-03-12T11:54:14.023Z,99.99
2023-03-12T11:55:16.404Z,99.99
2023-03-12T11:56:14.028Z,99.99
2023-03-12T11:57:14.036Z,99.99
2023-03-12T11:58:14.011Z,99.99
2023-03-12T11:59:13.996Z,99.99
2023-03-12T12:00:13.986Z,99.99
2023-03-12T12:01:13.970Z,99.99
2023-03-12T12:02:13.982Z,99.99
2023-03-12T12:03:13.979Z,99.99
2023-03-12T12:04:13.936Z,99.99
2023-03-12T12:05:13.927Z,99.99
2023-03-12T12:06:14.022Z,99.99
2023-03-12T12:07:13.965Z,99.99
2023-03-12T12:08:14.062Z,99.99
2023-03-12T12:09:13.985Z,99.99
2023-03-12T12:10:13.868Z,99.99
2023-03-12T12:11:13.879Z,99.99
2023-03-12T12:12:13.861Z,99.99
2023-03-12T12:13:13.846Z,99.99
2023-03-12T12:14:13.841Z,99.99
2023-03-12T12:15:13.845Z,99.99
2023-03-12T12:16:13.938Z,99.99
2023-03-12T12:17:13.845Z,99.99
2023-03-12T12:18:13.794Z,99.99
2023-03-12T12:19:13.830Z,99.99
2023-03-12T12:20:13.805Z,99.99
2023-03-12T12:21:13.977Z,99.99
2023-03-12T12:22:13.787Z,99.99
2023-03-12T12:23:13.982Z,99.99
2023-03-12T12:24:15.784Z,99.99
2023-03-12T12:25:13.947Z,99.99
2023-03-12T12:26:13.979Z,99.99
2023-03-12T12:27:13.724Z,99.99
2023-03-12T12:28:13.920Z,99.99
2023-03-12T12:29:13.705Z,99.99
2023-03-12T12:30:13.682Z,99.99
2023-03-12T12:31:13.680Z,99.99
2023-03-12T12:32:13.670Z,99.99
2023-03-12T12:33:13.657Z,99.99
2023-03-12T12:34:13.651Z,99.99
2023-03-12T12:35:14.257Z,99.99
2023-03-12T12:36:13.680Z,99.99
2023-03-12T12:37:13.753Z,99.99
2023-03-12T12:38:13.674Z,99.99
2023-03-12T12:39:13.746Z,99.99
2023-03-12T12:40:13.628Z,99.99
2023-03-12T12:41:13.606Z,99.99
2023-03-12T12:42:13.572Z,99.99
2023-03-12T12:43:13.586Z,99.99
2023-03-12T12:44:13.552Z,99.99
2023-03-12T12:45:13.609Z,99.99
2023-03-12T12:46:13.808Z,99.99
2023-03-12T12:47:13.595Z,99.99
2023-03-12T12:48:13.501Z,99.99
2023-03-12T12:49:13.548Z,99.99
2023-03-12T12:50:13.618Z,99.99
2023-03-12T12:51:13.521Z,99.99
2023-03-12T12:52:13.501Z,99.99
2023-03-12T12:53:13.671Z,99.99
2023-03-12T12:54:13.551Z,99.99
2023-03-12T12:55:13.478Z,99.99
2023-03-12T12:56:15.443Z,99.99
2023-03-12T12:57:13.421Z,99.99
2023-03-12T12:58:13.702Z,99.80
2023-03-12T12:59:13.440Z,99.96
2023-03-12T13:00:13.480Z,99.55
2023-03-12T13:01:13.517Z,99.46
2023-03-12T13:02:13.453Z,98.70
2023-03-12T13:03:13.349Z,96.41
2023-03-12T13:04:13.582Z,96.36
2023-03-12T13:05:13.373Z,95.75
2023-03-12T13:06:13.346Z,95.75
2023-03-12T13:07:13.336Z,95.95
2023-03-12T13:08:13.479Z,94.52
2023-03-12T13:09:13.293Z,95.38
2023-03-12T13:10:13.369Z,95.18
2023-03-12T13:11:19.369Z,95.48
2023-03-12T13:12:13.309Z,95.69
2023-03-12T13:13:13.309Z,96.41
2023-03-12T13:14:13.476Z,96.10
2023-03-12T13:15:13.235Z,95.59
2023-03-12T13:16:13.558Z,95.38
2023-03-12T13:17:13.229Z,95.63
2023-03-12T13:18:13.251Z,96.14
2023-03-12T13:19:13.464Z,96.04
2023-03-12T13:20:13.403Z,96.66
2023-03-12T13:21:13.216Z,96.66
2023-03-12T13:22:13.444Z,96.92
2023-03-12T13:23:13.455Z,97.12
2023-03-12T13:24:13.524Z,96.20
2023-03-12T13:25:13.252Z,96.20
2023-03-12T13:26:13.137Z,96.51
2023-03-12T13:27:13.325Z,95.89
2023-03-12T13:28:13.134Z,96.10
2023-03-12T13:29:13.201Z,96.41
2023-03-12T13:30:13.294Z,96.00
2023-03-12T13:31:13.351Z,95.89
2023-03-12T13:32:13.064Z,96.05
2023-03-12T13:33:13.137Z,95.54
2023-03-12T13:34:13.203Z,95.13
2023-03-12T13:35:13.261Z,95.75
2023-03-12T13:36:13.176Z,95.50
2023-03-12T13:37:13.099Z,95.13
2023-03-12T13:38:13.195Z,95.09
2023-03-12T13:39:13.002Z,95.29
2023-03-12T13:40:13.052Z,95.19
2023-03-12T13:41:13.085Z,95.29
2023-03-12T13:42:13.085Z,95.09
2023-03-12T13:43:12.978Z,94.84
2023-03-12T13:44:12.949Z,94.43
2023-03-12T13:45:12.941Z,94.18
2023-03-12T13:46:13.010Z,93.26
2023-03-12T13:47:13.114Z,92.45
2023-03-12T13:48:12.879Z,92.35
2023-03-12T13:49:12.946Z,93.16
2023-03-12T13:50:12.895Z,93.26
2023-03-12T13:51:12.931Z,93.57
2023-03-12T13:52:12.864Z,93.26
2023-03-12T13:53:12.848Z,93.06
2023-03-12T13:54:12.840Z,93.02
2023-03-12T13:55:13.093Z,92.61
2023-03-12T13:56:12.854Z,92.41
2023-03-12T13:57:12.821Z,92.71
2023-03-12T13:58:12.826Z,92.57
2023-03-12T13:59:12.822Z,92.00
2023-03-12T14:00:13.125Z,91.49
2023-03-12T14:01:12.922Z,91.69
2023-03-12T14:02:12.896Z,91.65
2023-03-12T14:03:12.855Z,92.16
2023-03-12T14:04:12.961Z,91.14
2023-03-12T14:05:12.991Z,91.03
2023-03-12T14:06:12.742Z,91.03
2023-03-12T14:07:12.764Z,90.94
2023-03-12T14:08:12.862Z,91.14
2023-03-12T14:09:12.947Z,90.53
2023-03-12T14:10:12.845Z,90.47
2023-03-12T14:11:12.836Z,90.57
2023-03-12T14:12:12.935Z,90.57
2023-03-12T14:13:12.783Z,90.47
2023-03-12T14:14:12.896Z,90.36
2023-03-12T14:15:12.736Z,89.96
2023-03-12T14:16:12.695Z,90.57
2023-03-12T14:17:12.611Z,90.47
2023-03-12T14:18:12.808Z,90.77
2023-03-12T14:19:12.944Z,89.96
2023-03-12T14:20:12.878Z,90.88
2023-03-12T14:21:12.710Z,90.88
2023-03-12T14:22:12.735Z,90.36
2023-03-12T14:23:12.591Z,89.86
2023-03-12T14:24:12.734Z,89.39
2023-03-12T14:25:12.698Z,90.31
2023-03-12T14:26:12.528Z,90.20
2023-03-12T14:27:12.588Z,90.10
2023-03-12T14:28:12.635Z,90.41
2023-03-12T14:29:12.630Z,90.00
2023-03-12T14:30:12.737Z,90.10
2023-03-12T14:31:12.726Z,90.00
2023-03-12T14:32:12.475Z,90.25
2023-03-12T14:33:12.743Z,90.35
2023-03-12T14:34:12.635Z,90.75
2023-03-12T14:35:12.460Z,90.75
2023-03-12T14:36:12.463Z,90.45
2023-03-12T14:37:12.859Z,90.55
2023-03-12T14:38:12.554Z,90.14
2023-03-12T14:39:12.635Z,90.45
2023-03-12T14:40:12.704Z,91.06
2023-03-12T14:41:12.589Z,90.29
2023-03-12T14:42:12.399Z,90.70
2023-03-12T14:43:12.607Z,90.59
2023-03-12T14:44:12.438Z,91.00
2023-03-12T14:45:12.430Z,91.31
2023-03-12T14:46:12.346Z,90.59
2023-03-12T14:47:12.516Z,90.90
2023-03-12T14:48:12.655Z,91.00
2023-03-12T14:49:12.406Z,90.80
2023-03-12T14:50:12.658Z,90.80
2023-03-12T14:51:12.489Z,91.20
2023-03-12T14:52:12.560Z,90.90
2023-03-12T14:53:12.676Z,91.11
2023-03-12T14:54:12.311Z,90.70
2023-03-12T14:55:12.424Z,91.11
2023-03-12T14:56:12.297Z,90.49